METAR Data
IDs: Format: Raw Decoded Include TAF

Data at: 1535 UTC 26 Sep 2021

Region: TOP
KATL 261452Z 31004KT 10SM CLR 23/13 A3018 RMK AO2 SLP214 T02280133 51013

KBOS 261454Z 31010KT 10SM FEW018 SCT070 SCT250 22/14 A2976 RMK AO2 SLP079 60000 T02170144 50000

KBWI 261454Z COR 27014G18KT 10SM FEW050 21/09 A3004 RMK AO2 SLP171 T02110094 50009

KCLE 261451Z 23009KT 10SM FEW100 18/07 A3001 RMK AO2 SLP175 T01780067 53003

KCLT 261452Z 04006KT 10SM FEW250 22/12 A3016 RMK AO2 SLP209 T02220122 51014

KCVG 261452Z 21006KT 10SM FEW250 18/08 A3014 RMK AO2 SLP202 T01780078 51010

KDCA 261452Z 33012G18KT 10SM FEW035 22/08 A3007 RMK AO2 SLP182 T02170083 51010 $

KDEN 261453Z 23010KT 10SM FEW130 22/M02 A3007 RMK AO2 SLP107 T02171022 52008

KDFW 261453Z 20008KT 10SM SCT230 24/12 A3011 RMK AO2 SLP187 T02440117 53009

KDTW 261453Z 27008KT 10SM BKN140 BKN250 16/08 A2999 RMK AO2 SLP154 T01610078 53005

KEWR 261451Z 32014KT 10SM FEW055 FEW085 22/07 A2993 RMK AO2 SLP133 T02170067 51008 $

KFLL 261453Z 06012G17KT 10SM SCT032 30/23 A3005 RMK AO2 SLP177 60000 T03000228 53015

KIAD 261452Z 31010KT 10SM FEW070 FEW250 21/08 A3007 RMK AO2 SLP180 T02060083 51010

KIAH 261453Z VRB04KT 10SM FEW250 24/17 A3013 RMK AO2 SLP203 T02440172 52010

KJFK 261451Z 32014KT 10SM FEW045 FEW080 21/09 A2991 RMK AO2 SLP129 T02110089 51008 $

KLAS 261456Z 30003KT 10SM FEW130 SCT250 24/11 A2998 RMK AO2 SLP130 T02440106 51012

KLAX 261453Z COR 27003KT 10SM OVC012 18/14 A3003 RMK AO2 SLP168 T01780144 53004 $

KLGA 261451Z 30014G21KT 10SM FEW047 FEW065 FEW130 20/08 A2991 RMK AO2 SLP126 T02000078 51008 $

KMCO 261453Z 08007KT 10SM FEW030 FEW250 29/21 A3010 RMK AO2 SLP192 T02890206 51010

KMDW 261453Z 25013KT 10SM FEW095 FEW250 19/06 A2999 RMK AO2 SLP149 T01940061 50003

KMEM 261454Z 06003KT 10SM CLR 24/16 A3016 RMK AO2 SLP209 T02390161 51010 $

KMIA 261453Z 02008KT 10SM BKN030 BKN250 30/23 A3006 RMK AO2 SLP178 T03000233 53014 $

KMSP 261453Z 22003KT 10SM BKN160 OVC200 16/09 A2977 RMK AO2 SLP080 T01610094 55004 $

KORD 261451Z 22013G20KT 10SM FEW100 SCT250 19/07 A2997 RMK AO2 SLP145 T01890072 50003

KPDX 261453Z 17003KT 10SM OVC023 16/10 A2995 RMK AO2 SLP139 T01560100 53002

KPHL 261454Z 33011G21KT 10SM FEW040 FEW250 20/07 A2999 RMK AO2 SLP156 T02000072 51010 $

KPHX 261451Z 09008KT 10SM SCT035 SCT080 BKN100 OVC200 23/17 A2999 RMK AO2 RAB03E36 SLP139 SHRA DSNT N-SE P0000 60000 T02330172 51019 $

KPIT 261451Z 23008KT 10SM FEW150 FEW250 16/08 A3006 RMK AO2 SLP187 T01610083 52005

KSAN 261502Z 00000KT 6SM -RA FEW007 OVC016 19/17 A3005 RMK AO2 RAB1458 P0000 T01940167

KSEA 261453Z 16007KT 10SM BKN027 OVC050 13/09 A2988 RMK AO2 SLP122 T01330094 58000

KSFO 261456Z 28008KT 10SM FEW011 BKN017 16/11 A3003 RMK AO2 SLP167 T01560111 53008

KSLC 261454Z 12005KT 10SM CLR 19/03 A3005 RMK AO2 SLP131 T01890033 51010

KSTL 261451Z 21011G16KT 10SM FEW250 22/09 A3009 RMK AO2 SLP184 T02170094 51007

KTPA 261453Z VRB03KT 10SM FEW030 FEW200 29/22 A3010 RMK AO2 SLP191 T02940222 51010